createdAt,value
2019-03-29T00:02:18.712Z,39.98
2019-03-29T00:04:49.907Z,41.60
2019-03-29T00:07:21.070Z,40.90
2019-03-29T00:09:52.231Z,31.23
2019-03-29T00:12:23.414Z,29.63
2019-03-29T00:14:54.607Z,27.25
2019-03-29T00:17:25.792Z,27.50
2019-03-29T00:19:56.978Z,18.60
2019-03-29T00:22:28.145Z,17.07
2019-03-29T00:24:59.327Z,16.57
2019-03-29T00:27:30.540Z,27.40
2019-03-29T00:30:01.798Z,35.33
2019-03-29T00:32:32.977Z,35.08
2019-03-29T00:35:04.234Z,37.35
2019-03-29T00:37:35.404Z,36.13
2019-03-29T00:40:07.286Z,36.25
2019-03-29T00:42:38.500Z,35.68
2019-03-29T00:45:09.804Z,34.88
2019-03-29T00:47:40.994Z,18.82
2019-03-29T00:50:12.286Z,12.50
2019-03-29T00:52:43.880Z,13.90
2019-03-29T00:55:15.041Z,14.73
2019-03-29T00:57:46.220Z,18.30
2019-03-29T01:00:17.654Z,15.80
2019-03-29T01:02:48.801Z,17.70
2019-03-29T01:05:20.219Z,17.90
2019-03-29T01:07:52.154Z,17.52
2019-03-29T01:10:23.313Z,14.33
2019-03-29T01:12:54.560Z,17.00
2019-03-29T01:15:25.737Z,14.10
2019-03-29T01:17:56.922Z,16.12
2019-03-29T01:20:28.175Z,18.42
2019-03-29T01:22:59.413Z,26.40
2019-03-29T01:25:30.575Z,21.05
2019-03-29T01:28:03.185Z,18.73
2019-03-29T01:30:34.325Z,18.85
2019-03-29T01:33:05.481Z,19.17
2019-03-29T01:35:36.695Z,18.77
2019-03-29T01:38:20.736Z,32.80
2019-03-29T01:40:40.741Z,28.77
2019-03-29T01:43:11.906Z,19.40
2019-03-29T01:45:43.098Z,21.60
2019-03-29T01:48:14.254Z,23.00
2019-03-29T01:50:45.445Z,20.12
2019-03-29T01:53:16.599Z,18.20
2019-03-29T01:55:48.758Z,20.77
2019-03-29T01:58:20.298Z,23.67
2019-03-29T02:00:51.461Z,17.87
2019-03-29T02:03:22.638Z,16.82
2019-03-29T02:05:53.921Z,16.70
2019-03-29T02:08:35.191Z,11.18
2019-03-29T02:10:57.998Z,20.37
2019-03-29T02:13:29.226Z,19.85
2019-03-29T02:16:00.433Z,11.28
2019-03-29T02:18:31.656Z,15.28
2019-03-29T02:21:02.876Z,16.30
2019-03-29T02:23:34.036Z,18.32
2019-03-29T02:26:05.265Z,17.62
2019-03-29T02:28:36.438Z,19.45
2019-03-29T02:31:07.627Z,19.75
2019-03-29T02:33:38.809Z,18.60
2019-03-29T02:36:10.049Z,19.37
2019-03-29T02:38:54.967Z,19.75
2019-03-29T02:41:14.171Z,19.95
2019-03-29T02:43:45.384Z,17.00
2019-03-29T02:46:17.440Z,15.78
2019-03-29T02:48:48.673Z,9.83
2019-03-29T02:51:19.841Z,9.15
2019-03-29T02:53:51.006Z,15.70
2019-03-29T02:56:22.222Z,24.87
2019-03-29T02:58:53.387Z,25.48
2019-03-29T03:01:24.548Z,27.90
2019-03-29T03:03:55.740Z,36.58
2019-03-29T03:06:26.909Z,41.37
2019-03-29T03:09:12.337Z,45.73
2019-03-29T03:11:31.039Z,43.95
2019-03-29T03:14:02.187Z,37.73
2019-03-29T03:16:33.344Z,37.20
2019-03-29T03:19:04.613Z,35.13
2019-03-29T03:21:35.781Z,34.40
2019-03-29T03:24:07.049Z,40.70
2019-03-29T03:26:38.276Z,38.80
2019-03-29T03:29:09.624Z,38.75
2019-03-29T03:31:40.805Z,39.90
2019-03-29T03:34:11.998Z,38.85
2019-03-29T03:36:43.158Z,40.55
2019-03-29T03:39:30.477Z,46.30
2019-03-29T03:41:47.226Z,54.48
2019-03-29T03:44:18.399Z,55.15
2019-03-29T03:46:49.567Z,65.72
2019-03-29T03:49:20.759Z,60.12
2019-03-29T03:51:51.927Z,57.10
2019-03-29T03:54:23.704Z,57.10
2019-03-29T03:56:56.196Z,57.85
2019-03-29T03:59:30.034Z,65.00
2019-03-29T04:02:01.207Z,71.47
2019-03-29T04:04:32.405Z,71.60
2019-03-29T04:07:03.628Z,61.73
2019-03-29T04:09:48.595Z,54.30
2019-03-29T04:12:07.776Z,54.60
2019-03-29T04:14:38.964Z,51.25
2019-03-29T04:17:10.125Z,48.55
2019-03-29T04:19:41.289Z,42.38
2019-03-29T04:22:12.476Z,41.77
2019-03-29T04:24:43.729Z,40.55
2019-03-29T04:27:14.891Z,41.45
2019-03-29T04:29:46.105Z,37.17
2019-03-29T04:32:17.269Z,38.45
2019-03-29T04:34:48.455Z,37.35
2019-03-29T04:37:19.651Z,38.15
2019-03-29T04:40:06.303Z,34.25
2019-03-29T04:42:23.780Z,33.83
2019-03-29T04:44:54.950Z,33.35
2019-03-29T04:47:26.113Z,29.60
2019-03-29T04:49:57.394Z,30.00
2019-03-29T04:52:28.700Z,31.00
2019-03-29T04:55:00.590Z,30.00
2019-03-29T04:57:31.887Z,31.87
2019-03-29T05:00:03.142Z,31.52
2019-03-29T05:02:34.429Z,28.73
2019-03-29T05:05:05.638Z,27.10
2019-03-29T05:07:37.304Z,26.75
2019-03-29T05:10:20.230Z,28.00
2019-03-29T05:12:42.214Z,29.05
2019-03-29T05:15:13.598Z,26.00
2019-03-29T05:17:44.825Z,27.73
2019-03-29T05:20:16.018Z,26.25
2019-03-29T05:22:47.184Z,31.12
2019-03-29T05:25:18.369Z,26.50
2019-03-29T05:27:51.123Z,21.85
2019-03-29T05:30:22.464Z,23.47
2019-03-29T05:32:53.748Z,22.07
2019-03-29T05:35:24.976Z,28.40
2019-03-29T05:37:56.163Z,32.03
2019-03-29T05:40:34.826Z,26.33
2019-03-29T05:43:00.253Z,29.20
2019-03-29T05:45:31.780Z,29.15
2019-03-29T05:48:02.999Z,28.57
2019-03-29T05:50:36.782Z,27.98
2019-03-29T05:53:07.794Z,29.87
2019-03-29T05:55:39.002Z,28.27
2019-03-29T05:58:10.186Z,26.60
2019-03-29T06:00:41.389Z,24.43
2019-03-29T06:03:12.750Z,25.43
2019-03-29T06:05:44.033Z,25.82
2019-03-29T06:08:15.322Z,28.80
2019-03-29T06:10:49.416Z,25.52
2019-03-29T06:13:19.970Z,27.67
2019-03-29T06:15:51.238Z,26.77
2019-03-29T06:18:22.505Z,30.80
2019-03-29T06:20:53.701Z,33.02
2019-03-29T06:23:24.927Z,31.75
2019-03-29T06:25:56.139Z,32.20
2019-03-29T06:28:29.878Z,34.10
2019-03-29T06:31:00.340Z,34.00
2019-03-29T06:33:31.770Z,35.10
2019-03-29T06:36:04.556Z,37.95
2019-03-29T06:38:37.790Z,38.15
2019-03-29T06:41:09.063Z,40.50
2019-03-29T06:43:40.254Z,39.92
2019-03-29T06:46:11.441Z,56.13
2019-03-29T06:48:42.641Z,53.30
2019-03-29T06:51:13.905Z,49.67
2019-03-29T06:53:45.098Z,56.53
2019-03-29T06:56:16.322Z,60.10
2019-03-29T06:58:47.538Z,57.85
2019-03-29T07:01:18.850Z,50.92
2019-03-29T07:03:50.080Z,47.85
2019-03-29T07:06:21.310Z,48.65
2019-03-29T07:08:52.526Z,49.03
2019-03-29T07:11:23.739Z,49.80
2019-03-29T07:13:57.798Z,51.45
2019-03-29T07:16:28.144Z,52.03
2019-03-29T07:18:59.326Z,53.28
2019-03-29T07:21:30.575Z,52.45
2019-03-29T07:24:01.797Z,54.90
2019-03-29T07:26:32.978Z,55.67
2019-03-29T07:29:04.256Z,51.75
2019-03-29T07:31:35.556Z,53.90
2019-03-29T07:34:06.872Z,58.10
2019-03-29T07:36:38.073Z,58.00
2019-03-29T07:39:09.471Z,56.53
2019-03-29T07:41:40.635Z,53.55
2019-03-29T07:44:12.077Z,53.63
2019-03-29T07:46:43.283Z,56.65
2019-03-29T07:49:14.520Z,52.50
2019-03-29T07:51:45.748Z,54.88
2019-03-29T07:54:17.120Z,50.88
2019-03-29T07:56:48.471Z,51.50
2019-03-29T07:59:19.707Z,52.38
2019-03-29T08:01:50.990Z,52.85
2019-03-29T08:04:23.859Z,54.80
2019-03-29T08:06:55.708Z,55.35
2019-03-29T08:09:27.423Z,54.88
2019-03-29T08:11:59.268Z,56.55
2019-03-29T08:14:31.372Z,55.17
2019-03-29T08:17:02.558Z,55.05
2019-03-29T08:19:36.997Z,46.02
2019-03-29T08:22:06.765Z,57.20
2019-03-29T08:24:38.005Z,56.40
2019-03-29T08:27:09.265Z,53.10
2019-03-29T08:29:40.592Z,56.40
2019-03-29T08:32:11.798Z,55.20
2019-03-29T08:34:43.019Z,49.93
2019-03-29T08:37:14.351Z,53.98
2019-03-29T08:39:45.555Z,54.18
2019-03-29T08:42:18.508Z,55.92
2019-03-29T08:44:49.751Z,53.02
2019-03-29T08:47:20.940Z,56.55
2019-03-29T08:49:52.185Z,52.10
2019-03-29T08:52:23.502Z,54.42
2019-03-29T08:54:54.771Z,53.87
2019-03-29T08:57:25.963Z,51.92
2019-03-29T08:59:57.163Z,53.35
2019-03-29T09:02:28.544Z,50.17
2019-03-29T09:04:59.742Z,49.10
2019-03-29T09:07:44.043Z,50.05
2019-03-29T09:10:05.737Z,45.73
2019-03-29T09:12:36.948Z,51.98
2019-03-29T09:15:08.316Z,49.93
2019-03-29T09:17:39.585Z,49.35
2019-03-29T09:20:10.913Z,44.80
2019-03-29T09:22:42.150Z,43.95
2019-03-29T09:25:13.323Z,42.80
2019-03-29T09:27:44.590Z,44.55
2019-03-29T09:30:15.819Z,44.50
2019-03-29T09:32:47.064Z,40.25
2019-03-29T09:35:18.307Z,36.83
2019-03-29T09:37:49.637Z,38.20
2019-03-29T09:40:20.919Z,38.65
2019-03-29T09:43:06.823Z,38.25
2019-03-29T09:45:25.404Z,36.42
2019-03-29T09:47:56.682Z,36.60
2019-03-29T09:50:27.886Z,36.05
2019-03-29T10:55:36.427Z,17.70
2019-03-29T11:13:11.956Z,19.35
2019-03-29T11:15:36.087Z,17.82
2019-03-29T11:18:09.131Z,17.95
2019-03-29T11:20:40.813Z,18.82
2019-03-29T11:23:12.297Z,20.05
2019-03-29T11:31:02.450Z,17.50
2019-03-29T11:33:33.781Z,17.42
2019-03-29T11:36:05.055Z,17.90
2019-03-29T11:38:36.273Z,18.45
2019-03-29T11:41:07.445Z,17.65
2019-03-29T11:43:38.621Z,16.07
2019-03-29T11:46:09.871Z,16.42
2019-03-29T11:48:41.096Z,15.95
2019-03-29T11:51:19.307Z,16.37
2019-03-29T11:53:45.775Z,17.70
2019-03-29T11:56:17.006Z,17.30
2019-03-29T11:58:48.181Z,18.32
2019-03-29T12:01:19.453Z,18.15
2019-03-29T12:03:50.594Z,17.70
2019-03-29T12:06:21.851Z,18.92
2019-03-29T12:08:53.108Z,17.35
2019-03-29T12:11:24.455Z,18.37
2019-03-29T12:13:55.650Z,18.45
2019-03-29T12:16:26.874Z,18.02
2019-03-29T12:18:58.145Z,18.10
2019-03-29T12:21:29.422Z,18.57
2019-03-29T12:24:00.655Z,17.23
2019-03-29T12:26:31.939Z,18.07
2019-03-29T12:29:03.267Z,17.77
2019-03-29T12:31:34.559Z,16.77
2019-03-29T12:34:05.857Z,14.47
2019-03-29T12:36:37.181Z,15.20
2019-03-29T12:39:09.192Z,13.93
2019-03-29T12:41:40.540Z,14.15
2019-03-29T12:44:11.847Z,13.68
2019-03-29T12:46:43.132Z,15.55
2019-03-29T12:49:14.428Z,13.72
2019-03-29T12:51:46.833Z,12.23
2019-03-29T12:54:18.714Z,12.88
2019-03-29T12:56:49.990Z,13.93
2019-03-29T12:59:21.228Z,14.10
2019-03-29T13:01:52.632Z,14.20
2019-03-29T13:04:23.938Z,14.05
2019-03-29T13:06:55.257Z,13.22
2019-03-29T13:09:26.549Z,14.38
2019-03-29T13:11:57.863Z,15.03
2019-03-29T13:14:29.182Z,14.15
2019-03-29T13:17:02.790Z,14.03
2019-03-29T13:19:33.316Z,15.68
2019-03-29T13:22:06.159Z,13.90
2019-03-29T13:24:37.325Z,13.43
2019-03-29T13:27:08.507Z,12.00
2019-03-29T13:29:39.678Z,11.97
2019-03-29T13:32:10.991Z,9.43
2019-03-29T13:34:42.236Z,11.63
2019-03-29T13:37:13.432Z,12.07
2019-03-29T13:39:44.753Z,12.95
2019-03-29T13:42:15.953Z,14.07
2019-03-29T13:44:47.343Z,14.75
2019-03-29T13:47:18.555Z,13.58
2019-03-29T13:49:49.824Z,13.83
2019-03-29T13:52:21.083Z,14.25
2019-03-29T13:54:52.391Z,13.75
2019-03-29T13:57:23.685Z,14.90
2019-03-29T13:59:54.891Z,15.43
2019-03-29T14:02:26.165Z,14.30
2019-03-29T14:04:57.411Z,13.72
2019-03-29T14:07:28.650Z,13.75
2019-03-29T14:09:59.890Z,13.68
2019-03-29T14:12:31.191Z,11.83
2019-03-29T14:15:02.390Z,11.85
2019-03-29T14:17:33.679Z,11.85
2019-03-29T14:20:05.122Z,12.53
2019-03-29T14:22:36.332Z,11.55
2019-03-29T14:25:08.304Z,11.68
2019-03-29T14:27:39.551Z,10.30
2019-03-29T14:30:11.227Z,10.18
2019-03-29T14:32:42.535Z,9.70
2019-03-29T14:35:13.897Z,9.45
2019-03-29T14:37:45.159Z,10.63
2019-03-29T14:40:16.642Z,10.32
2019-03-29T14:42:47.894Z,8.73
2019-03-29T14:45:19.105Z,8.53
2019-03-29T14:47:50.415Z,10.08
2019-03-29T14:50:21.742Z,10.70
2019-03-29T14:52:52.936Z,9.15
2019-03-29T14:55:24.108Z,8.98
2019-03-29T14:57:55.517Z,10.98
2019-03-29T15:00:48.583Z,11.10
2019-03-29T15:03:19.249Z,11.53
2019-03-29T15:05:50.443Z,11.33
2019-03-29T15:08:21.623Z,10.28
2019-03-29T15:10:53.042Z,10.68
2019-03-29T15:13:24.543Z,11.73
2019-03-29T15:15:55.855Z,10.98
2019-03-29T15:18:27.102Z,10.70
2019-03-29T15:20:58.374Z,11.83
2019-03-29T15:23:29.654Z,11.38
2019-03-29T15:26:01.004Z,11.83
2019-03-29T15:28:32.204Z,11.28
2019-03-29T15:31:03.477Z,9.58
2019-03-29T15:33:34.764Z,11.18
2019-03-29T15:36:06.012Z,12.30
2019-03-29T15:38:37.285Z,9.85
2019-03-29T15:41:08.707Z,10.68
2019-03-29T15:43:40.013Z,11.38
2019-03-29T15:46:11.250Z,10.72
2019-03-29T15:48:42.615Z,11.85
2019-03-29T15:51:13.810Z,12.53
2019-03-29T15:53:45.004Z,12.43
2019-03-29T15:56:16.366Z,12.07
2019-03-29T15:58:47.608Z,12.28
2019-03-29T16:01:18.775Z,11.88
2019-03-29T16:03:49.981Z,11.90
2019-03-29T16:06:21.158Z,13.35
2019-03-29T16:08:52.389Z,12.98
2019-03-29T16:11:23.582Z,12.20
2019-03-29T16:13:54.819Z,12.15
2019-03-29T16:16:26.052Z,12.23
2019-03-29T16:18:57.553Z,11.68
2019-03-29T16:21:28.729Z,11.97
2019-03-29T16:24:00.007Z,12.23
2019-03-29T16:26:31.218Z,11.93
2019-03-29T16:29:02.395Z,11.12
2019-03-29T16:31:33.738Z,10.08
2019-03-29T16:34:04.976Z,9.90
2019-03-29T16:36:36.318Z,10.65
2019-03-29T16:39:09.516Z,12.10
2019-03-29T16:41:40.839Z,12.43
2019-03-29T16:44:12.102Z,12.03
2019-03-29T16:46:43.354Z,12.60
2019-03-29T16:49:14.568Z,11.78
2019-03-29T16:51:45.765Z,11.35
2019-03-29T16:54:17.027Z,11.18
2019-03-29T16:56:48.273Z,11.22
2019-03-29T16:59:19.572Z,12.78
2019-03-29T17:01:51.393Z,13.38
2019-03-29T17:04:23.428Z,11.83
2019-03-29T17:06:54.719Z,11.83
2019-03-29T17:09:26.009Z,10.72
2019-03-29T17:11:57.219Z,10.80
2019-03-29T17:14:28.494Z,11.35
2019-03-29T17:16:59.713Z,10.63
2019-03-29T17:19:31.087Z,10.60
2019-03-29T17:22:02.305Z,10.88
2019-03-29T17:24:33.608Z,9.30
2019-03-29T17:27:04.866Z,9.05
2019-03-29T17:29:36.125Z,8.68
2019-03-29T17:32:07.308Z,8.28
2019-03-29T17:34:39.623Z,9.18
2019-03-29T17:37:10.884Z,8.75
2019-03-29T17:39:42.125Z,9.03
2019-03-29T17:42:13.445Z,8.90
2019-03-29T17:44:44.714Z,9.53
2019-03-29T17:47:15.992Z,8.90
2019-03-29T17:49:47.204Z,9.18
2019-03-29T17:52:18.527Z,10.75
2019-03-29T17:54:49.826Z,11.53
2019-03-29T17:57:21.405Z,11.03
2019-03-29T17:59:52.632Z,11.15
2019-03-29T18:02:23.913Z,12.70
2019-03-29T18:04:55.172Z,13.58
2019-03-29T18:07:26.472Z,13.70
2019-03-29T18:09:57.788Z,34.08
2019-03-29T18:12:29.098Z,44.42
2019-03-29T18:15:00.433Z,46.83
2019-03-29T18:17:31.721Z,49.50
2019-03-29T18:20:02.947Z,54.23
2019-03-29T18:22:34.223Z,54.50
2019-03-29T18:25:05.551Z,55.95
2019-03-29T18:27:36.899Z,54.35
2019-03-29T18:30:10.352Z,58.00
2019-03-29T18:32:41.545Z,57.48
2019-03-29T18:35:12.919Z,61.18
2019-03-29T18:37:44.792Z,58.00
2019-03-29T18:40:27.855Z,58.17
2019-03-29T18:42:59.222Z,59.85
2019-03-29T18:45:30.421Z,61.95
2019-03-29T18:48:01.727Z,59.23
2019-03-29T18:50:33.014Z,61.60
2019-03-29T18:53:04.206Z,59.73
2019-03-29T18:55:35.415Z,59.40
2019-03-29T18:58:06.637Z,60.80
2019-03-29T19:00:37.969Z,63.13
2019-03-29T19:03:11.843Z,63.23
2019-03-29T19:05:42.098Z,62.33
2019-03-29T19:08:13.266Z,63.78
2019-03-29T19:10:44.498Z,61.58
2019-03-29T19:13:15.719Z,66.33
2019-03-29T19:15:47.032Z,62.43
2019-03-29T19:18:18.306Z,61.30
2019-03-29T19:20:49.599Z,62.93
2019-03-29T19:23:20.834Z,63.13
2019-03-29T19:25:52.261Z,64.70
2019-03-29T19:28:23.487Z,60.40
2019-03-29T19:30:54.685Z,64.42
2019-03-29T19:33:26.094Z,62.15
2019-03-29T19:35:57.383Z,65.55
2019-03-29T19:38:28.684Z,65.28
2019-03-29T19:40:59.877Z,66.42
2019-03-29T19:43:31.125Z,66.00
2019-03-29T19:46:02.346Z,64.85
2019-03-29T19:48:33.607Z,65.62
2019-03-29T19:51:05.003Z,69.58
2019-03-29T19:53:36.212Z,67.40
2019-03-29T19:56:07.482Z,65.85
2019-03-29T19:58:38.723Z,68.07
2019-03-29T20:01:09.940Z,67.67
2019-03-29T20:03:41.191Z,66.72
2019-03-29T20:06:12.422Z,67.97
2019-03-29T20:08:43.592Z,70.75
2019-03-29T20:11:14.801Z,71.47
2019-03-29T20:13:46.155Z,68.97
2019-03-29T20:16:17.335Z,69.62
2019-03-29T20:18:48.531Z,66.77
2019-03-29T20:21:19.874Z,68.30
2019-03-29T20:23:51.094Z,68.78
2019-03-29T20:26:22.299Z,69.30
2019-03-29T20:28:53.532Z,67.62
2019-03-29T20:31:24.741Z,70.12
2019-03-29T20:33:55.922Z,67.50
2019-03-29T20:36:27.213Z,68.42
2019-03-29T20:38:58.476Z,63.42
2019-03-29T20:41:30.059Z,67.75
2019-03-29T20:44:01.264Z,66.20
2019-03-29T20:46:32.457Z,68.83
2019-03-29T20:49:03.706Z,66.02
2019-03-29T20:51:34.915Z,69.35
2019-03-29T20:54:06.100Z,66.20
2019-03-29T20:56:37.269Z,72.15
2019-03-29T20:59:09.426Z,67.53
2019-03-29T21:01:40.586Z,69.60
2019-03-29T21:04:11.751Z,69.45
2019-03-29T21:06:42.938Z,66.80
2019-03-29T21:09:15.221Z,69.72
2019-03-29T21:11:46.420Z,68.45
2019-03-29T21:14:17.619Z,69.12
2019-03-29T21:16:48.786Z,66.37
2019-03-29T21:19:19.972Z,66.42
2019-03-29T21:21:51.214Z,64.45
2019-03-29T21:24:22.381Z,71.20
2019-03-29T21:26:53.632Z,68.00
2019-03-29T21:29:24.839Z,65.42
2019-03-29T21:31:56.003Z,66.60
2019-03-29T21:34:27.232Z,67.85
2019-03-29T21:36:58.448Z,65.72
2019-03-29T21:39:31.241Z,67.25
2019-03-29T21:42:02.615Z,67.17
2019-03-29T21:44:33.827Z,66.53
2019-03-29T21:47:05.018Z,68.87
2019-03-29T21:49:36.204Z,68.40
2019-03-29T21:52:07.372Z,66.70
2019-03-29T21:54:38.819Z,66.55
2019-03-29T21:57:10.119Z,66.33
2019-03-29T21:59:41.282Z,68.25
2019-03-29T22:02:12.460Z,68.20
2019-03-29T22:04:43.680Z,63.60
2019-03-29T22:07:14.890Z,64.07
2019-03-29T22:09:46.089Z,65.37
2019-03-29T22:12:17.299Z,64.37
2019-03-29T22:14:48.492Z,60.40
2019-03-29T22:17:19.780Z,60.80
2019-03-29T22:19:50.992Z,63.50
2019-03-29T22:22:22.156Z,61.80
2019-03-29T22:24:53.359Z,60.38
2019-03-29T22:27:24.602Z,62.48
2019-03-29T22:29:55.776Z,57.75
2019-03-29T22:32:26.942Z,58.33
2019-03-29T22:34:58.150Z,54.80
2019-03-29T22:37:29.329Z,56.50
2019-03-29T22:40:00.950Z,59.93
2019-03-29T22:42:32.255Z,56.95
2019-03-29T22:45:03.479Z,58.13
2019-03-29T22:47:34.735Z,55.98
2019-03-29T22:50:06.339Z,57.75
2019-03-29T22:52:37.585Z,59.08
2019-03-29T22:55:08.979Z,54.73
2019-03-29T22:57:40.215Z,56.50
2019-03-29T23:00:21.331Z,53.08
2019-03-29T23:02:52.663Z,42.78
2019-03-29T23:05:23.945Z,58.28
2019-03-29T23:07:55.155Z,60.33
2019-03-29T23:10:26.386Z,57.45
2019-03-29T23:12:57.758Z,57.62
2019-03-29T23:15:28.957Z,58.08
2019-03-29T23:18:00.205Z,57.85
2019-03-29T23:20:31.404Z,56.53
2019-03-29T23:23:02.578Z,54.45
2019-03-29T23:25:33.802Z,58.60
2019-03-29T23:28:04.997Z,57.23
2019-03-29T23:30:36.194Z,50.92
2019-03-29T23:33:07.448Z,49.58
2019-03-29T23:35:38.642Z,56.83
2019-03-29T23:38:09.828Z,59.88
2019-03-29T23:40:41.337Z,59.80
2019-03-29T23:43:12.542Z,54.65
2019-03-29T23:45:43.718Z,57.05
2019-03-29T23:48:14.935Z,59.42
2019-03-29T23:50:46.105Z,57.20
2019-03-29T23:53:17.275Z,57.38
2019-03-29T23:55:48.480Z,56.15
2019-03-29T23:58:19.663Z,54.45
